sensor_id;sensor_type;location;lat;lon;timestamp;temperature;humidity
53294;DHT22;39181;53.440;5.644;2022-11-21T00:00:04;1.80;99.90
53294;DHT22;39181;53.440;5.644;2022-11-21T00:02:31;1.80;99.90
53294;DHT22;39181;53.440;5.644;2022-11-21T00:04:57;1.80;99.90
53294;DHT22;39181;53.440;5.644;2022-11-21T00:07:22;1.80;99.90
53294;DHT22;39181;53.440;5.644;2022-11-21T00:09:48;1.80;99.90
53294;DHT22;39181;53.440;5.644;2022-11-21T00:12:15;1.80;99.90
53294;DHT22;39181;53.440;5.644;2022-11-21T00:14:40;1.80;99.90
53294;DHT22;39181;53.440;5.644;2022-11-21T00:17:06;1.70;99.90
53294;DHT22;39181;53.440;5.644;2022-11-21T00:19:32;1.60;99.90
53294;DHT22;39181;53.440;5.644;2022-11-21T00:21:57;1.60;99.90
53294;DHT22;39181;53.440;5.644;2022-11-21T00:24:23;1.50;99.90
53294;DHT22;39181;53.440;5.644;2022-11-21T00:26:48;1.40;99.90
53294;DHT22;39181;53.440;5.644;2022-11-21T00:29:14;1.40;99.90
53294;DHT22;39181;53.440;5.644;2022-11-21T00:31:40;1.20;99.90
53294;DHT22;39181;53.440;5.644;2022-11-21T00:34:05;1.10;99.90
53294;DHT22;39181;53.440;5.644;2022-11-21T00:36:31;1.10;99.90
53294;DHT22;39181;53.440;5.644;2022-11-21T00:38:56;0.90;99.90
53294;DHT22;39181;53.440;5.644;2022-11-21T00:41:22;0.90;99.90
53294;DHT22;39181;53.440;5.644;2022-11-21T00:43:47;0.80;99.90
53294;DHT22;39181;53.440;5.644;2022-11-21T00:46:13;0.70;99.90
53294;DHT22;39181;53.440;5.644;2022-11-21T00:48:38;0.60;99.90
53294;DHT22;39181;53.440;5.644;2022-11-21T00:51:04;0.60;99.90
53294;DHT22;39181;53.440;5.644;2022-11-21T00:53:30;0.50;99.90
53294;DHT22;39181;53.440;5.644;2022-11-21T00:55:55;0.50;99.90
53294;DHT22;39181;53.440;5.644;2022-11-21T00:58:22;0.40;99.90
53294;DHT22;39181;53.440;5.644;2022-11-21T01:00:47;0.40;99.90
53294;DHT22;39181;53.440;5.644;2022-11-21T01:03:13;0.30;99.90
53294;DHT22;39181;53.440;5.644;2022-11-21T01:05:38;0.30;99.90
53294;DHT22;39181;53.440;5.644;2022-11-21T01:08:04;0.30;99.90
53294;DHT22;39181;53.440;5.644;2022-11-21T01:10:29;0.30;99.90
53294;DHT22;39181;53.440;5.644;2022-11-21T01:12:55;0.20;99.90
53294;DHT22;39181;53.440;5.644;2022-11-21T01:15:21;0.20;99.90
53294;DHT22;39181;53.440;5.644;2022-11-21T01:17:46;0.10;99.90
53294;DHT22;39181;53.440;5.644;2022-11-21T01:20:12;0.00;99.90
53294;DHT22;39181;53.440;5.644;2022-11-21T01:22:38;0.00;99.90
53294;DHT22;39181;53.440;5.644;2022-11-21T01:25:03;0.00;99.90
53294;DHT22;39181;53.440;5.644;2022-11-21T01:27:29;0.10;99.90
53294;DHT22;39181;53.440;5.644;2022-11-21T01:29:55;0.00;99.90
53294;DHT22;39181;53.440;5.644;2022-11-21T01:32:20;0.00;99.90
53294;DHT22;39181;53.440;5.644;2022-11-21T01:34:46;0.00;99.90
53294;DHT22;39181;53.440;5.644;2022-11-21T01:37:11;0.00;99.90
53294;DHT22;39181;53.440;5.644;2022-11-21T01:39:37;-0.10;99.90
53294;DHT22;39181;53.440;5.644;2022-11-21T01:42:03;-0.10;99.90
53294;DHT22;39181;53.440;5.644;2022-11-21T01:44:52;-0.10;99.90
53294;DHT22;39181;53.440;5.644;2022-11-21T01:47:18;-0.20;99.90
53294;DHT22;39181;53.440;5.644;2022-11-21T01:49:45;-0.10;99.90
53294;DHT22;39181;53.440;5.644;2022-11-21T01:52:16;-0.20;99.90
53294;DHT22;39181;53.440;5.644;2022-11-21T01:55:05;-0.10;99.90
53294;DHT22;39181;53.440;5.644;2022-11-21T01:57:38;-0.10;99.90
53294;DHT22;39181;53.440;5.644;2022-11-21T02:00:07;-0.20;99.90
53294;DHT22;39181;53.440;5.644;2022-11-21T02:02:48;-0.20;99.90
53294;DHT22;39181;53.440;5.644;2022-11-21T02:05:22;-0.20;99.90
53294;DHT22;39181;53.440;5.644;2022-11-21T02:07:48;-0.20;99.90
53294;DHT22;39181;53.440;5.644;2022-11-21T02:10:16;-0.20;99.90
53294;DHT22;39181;53.440;5.644;2022-11-21T02:12:50;-0.20;99.90
53294;DHT22;39181;53.440;5.644;2022-11-21T02:15:17;-0.20;99.90
53294;DHT22;39181;53.440;5.644;2022-11-21T02:17:42;-0.30;99.90
53294;DHT22;39181;53.440;5.644;2022-11-21T02:20:14;-0.30;99.90
53294;DHT22;39181;53.440;5.644;2022-11-21T02:25:29;-0.20;99.90
53294;DHT22;39181;53.440;5.644;2022-11-21T02:27:58;-0.10;99.90
53294;DHT22;39181;53.440;5.644;2022-11-21T02:30:27;-0.20;99.90
53294;DHT22;39181;53.440;5.644;2022-11-21T02:32:54;-0.30;99.90
53294;DHT22;39181;53.440;5.644;2022-11-21T02:35:20;-0.20;99.90
53294;DHT22;39181;53.440;5.644;2022-11-21T02:40:34;-0.30;99.90
53294;DHT22;39181;53.440;5.644;2022-11-21T02:45:44;-0.20;99.90
53294;DHT22;39181;53.440;5.644;2022-11-21T02:48:10;-0.20;99.90
53294;DHT22;39181;53.440;5.644;2022-11-21T02:50:38;-0.20;99.90
53294;DHT22;39181;53.440;5.644;2022-11-21T02:53:05;-0.20;99.90
53294;DHT22;39181;53.440;5.644;2022-11-21T02:55:31;-0.20;99.90
53294;DHT22;39181;53.440;5.644;2022-11-21T02:57:57;-0.20;99.90
53294;DHT22;39181;53.440;5.644;2022-11-21T03:00:23;-0.10;99.90
53294;DHT22;39181;53.440;5.644;2022-11-21T03:02:49;-0.20;99.90
53294;DHT22;39181;53.440;5.644;2022-11-21T03:05:17;-0.20;99.90
53294;DHT22;39181;53.440;5.644;2022-11-21T03:07:43;-0.20;99.90
53294;DHT22;39181;53.440;5.644;2022-11-21T03:10:09;-0.20;99.90
53294;DHT22;39181;53.440;5.644;2022-11-21T03:12:36;-0.20;99.90
53294;DHT22;39181;53.440;5.644;2022-11-21T03:15:02;-0.20;99.90
53294;DHT22;39181;53.440;5.644;2022-11-21T03:17:28;-0.20;99.90
53294;DHT22;39181;53.440;5.644;2022-11-21T03:19:54;-0.20;99.90
53294;DHT22;39181;53.440;5.644;2022-11-21T03:22:19;-0.20;99.90
53294;DHT22;39181;53.440;5.644;2022-11-21T03:24:45;-0.10;99.90
53294;DHT22;39181;53.440;5.644;2022-11-21T03:27:10;-0.10;99.90
53294;DHT22;39181;53.440;5.644;2022-11-21T03:29:36;-0.10;99.90
53294;DHT22;39181;53.440;5.644;2022-11-21T03:32:02;-0.10;99.90
53294;DHT22;39181;53.440;5.644;2022-11-21T03:34:27;0.00;99.90
53294;DHT22;39181;53.440;5.644;2022-11-21T03:36:53;0.20;99.90
53294;DHT22;39181;53.440;5.644;2022-11-21T03:39:18;0.10;99.90
53294;DHT22;39181;53.440;5.644;2022-11-21T03:41:44;0.70;99.90
53294;DHT22;39181;53.440;5.644;2022-11-21T03:44:11;0.30;99.90
53294;DHT22;39181;53.440;5.644;2022-11-21T03:46:38;0.30;99.90
53294;DHT22;39181;53.440;5.644;2022-11-21T03:49:05;0.30;99.90
53294;DHT22;39181;53.440;5.644;2022-11-21T03:51:31;0.30;99.90
53294;DHT22;39181;53.440;5.644;2022-11-21T03:53:57;0.30;99.90
53294;DHT22;39181;53.440;5.644;2022-11-21T03:56:23;0.30;99.90
53294;DHT22;39181;53.440;5.644;2022-11-21T03:58:49;0.30;99.90
53294;DHT22;39181;53.440;5.644;2022-11-21T04:01:15;0.30;99.90
53294;DHT22;39181;53.440;5.644;2022-11-21T04:03:42;0.30;99.90
53294;DHT22;39181;53.440;5.644;2022-11-21T04:06:08;0.20;99.90
53294;DHT22;39181;53.440;5.644;2022-11-21T04:08:34;0.20;99.90
53294;DHT22;39181;53.440;5.644;2022-11-21T04:11:00;0.10;99.90
53294;DHT22;39181;53.440;5.644;2022-11-21T04:13:25;0.20;99.90
53294;DHT22;39181;53.440;5.644;2022-11-21T04:15:51;0.10;99.90
53294;DHT22;39181;53.440;5.644;2022-11-21T04:18:17;0.20;99.90
53294;DHT22;39181;53.440;5.644;2022-11-21T04:20:43;0.20;99.90
53294;DHT22;39181;53.440;5.644;2022-11-21T04:23:08;0.10;99.90
53294;DHT22;39181;53.440;5.644;2022-11-21T04:25:34;0.10;99.90
53294;DHT22;39181;53.440;5.644;2022-11-21T04:28:01;0.10;99.90
53294;DHT22;39181;53.440;5.644;2022-11-21T04:30:27;0.10;99.90
53294;DHT22;39181;53.440;5.644;2022-11-21T04:32:54;0.10;99.90
53294;DHT22;39181;53.440;5.644;2022-11-21T04:35:21;0.20;99.90
53294;DHT22;39181;53.440;5.644;2022-11-21T04:37:47;0.20;99.90
53294;DHT22;39181;53.440;5.644;2022-11-21T04:40:14;0.20;99.90
53294;DHT22;39181;53.440;5.644;2022-11-21T04:42:44;0.20;99.90
53294;DHT22;39181;53.440;5.644;2022-11-21T04:45:10;0.20;99.90
53294;DHT22;39181;53.440;5.644;2022-11-21T04:47:40;0.20;99.90
53294;DHT22;39181;53.440;5.644;2022-11-21T04:50:08;0.10;99.90
53294;DHT22;39181;53.440;5.644;2022-11-21T04:52:34;0.10;99.90
53294;DHT22;39181;53.440;5.644;2022-11-21T04:55:00;0.20;99.90
53294;DHT22;39181;53.440;5.644;2022-11-21T04:57:27;0.10;99.90
53294;DHT22;39181;53.440;5.644;2022-11-21T04:59:53;0.10;99.90
53294;DHT22;39181;53.440;5.644;2022-11-21T05:02:19;0.20;99.90
53294;DHT22;39181;53.440;5.644;2022-11-21T05:04:45;0.20;99.90
53294;DHT22;39181;53.440;5.644;2022-11-21T05:07:11;0.10;99.90
53294;DHT22;39181;53.440;5.644;2022-11-21T05:09:36;0.20;99.90
53294;DHT22;39181;53.440;5.644;2022-11-21T05:12:02;0.20;99.90
53294;DHT22;39181;53.440;5.644;2022-11-21T05:14:46;0.20;99.90
53294;DHT22;39181;53.440;5.644;2022-11-21T05:17:12;0.30;99.90
53294;DHT22;39181;53.440;5.644;2022-11-21T05:19:37;0.20;99.90
53294;DHT22;39181;53.440;5.644;2022-11-21T05:22:03;0.30;99.90
53294;DHT22;39181;53.440;5.644;2022-11-21T05:24:28;0.30;99.90
53294;DHT22;39181;53.440;5.644;2022-11-21T05:26:54;0.30;99.90
53294;DHT22;39181;53.440;5.644;2022-11-21T05:29:20;0.30;99.90
53294;DHT22;39181;53.440;5.644;2022-11-21T05:31:46;0.40;99.90
53294;DHT22;39181;53.440;5.644;2022-11-21T05:34:11;0.40;99.90
53294;DHT22;39181;53.440;5.644;2022-11-21T05:36:37;0.40;99.90
53294;DHT22;39181;53.440;5.644;2022-11-21T05:39:03;0.40;99.90
53294;DHT22;39181;53.440;5.644;2022-11-21T05:41:29;0.40;99.90
53294;DHT22;39181;53.440;5.644;2022-11-21T05:43:54;0.50;99.90
53294;DHT22;39181;53.440;5.644;2022-11-21T05:46:22;0.50;99.90
53294;DHT22;39181;53.440;5.644;2022-11-21T05:48:49;0.50;99.90
53294;DHT22;39181;53.440;5.644;2022-11-21T05:51:16;0.40;99.90
53294;DHT22;39181;53.440;5.644;2022-11-21T05:53:42;0.40;99.90
53294;DHT22;39181;53.440;5.644;2022-11-21T05:56:10;0.40;99.90
53294;DHT22;39181;53.440;5.644;2022-11-21T05:58:36;0.40;99.90
53294;DHT22;39181;53.440;5.644;2022-11-21T06:01:02;0.70;99.90
53294;DHT22;39181;53.440;5.644;2022-11-21T06:03:31;0.40;99.90
53294;DHT22;39181;53.440;5.644;2022-11-21T06:06:12;0.40;99.90
53294;DHT22;39181;53.440;5.644;2022-11-21T06:11:07;0.40;99.90
53294;DHT22;39181;53.440;5.644;2022-11-21T06:13:32;0.40;99.90
53294;DHT22;39181;53.440;5.644;2022-11-21T06:16:04;0.40;99.90
53294;DHT22;39181;53.440;5.644;2022-11-21T06:18:32;0.40;99.90
53294;DHT22;39181;53.440;5.644;2022-11-21T06:21:21;0.50;99.90
53294;DHT22;39181;53.440;5.644;2022-11-21T06:23:49;0.50;99.90
53294;DHT22;39181;53.440;5.644;2022-11-21T06:26:17;0.50;99.90
53294;DHT22;39181;53.440;5.644;2022-11-21T06:28:43;0.50;99.90
53294;DHT22;39181;53.440;5.644;2022-11-21T06:31:20;0.60;99.90
53294;DHT22;39181;53.440;5.644;2022-11-21T06:33:50;0.50;99.90
53294;DHT22;39181;53.440;5.644;2022-11-21T06:36:16;0.60;99.90
53294;DHT22;39181;53.440;5.644;2022-11-21T06:38:43;0.60;99.90
53294;DHT22;39181;53.440;5.644;2022-11-21T06:41:17;0.70;99.90
53294;DHT22;39181;53.440;5.644;2022-11-21T06:43:44;0.60;99.90
53294;DHT22;39181;53.440;5.644;2022-11-21T06:46:10;0.70;99.90
53294;DHT22;39181;53.440;5.644;2022-11-21T06:48:36;0.70;99.90
53294;DHT22;39181;53.440;5.644;2022-11-21T06:51:16;0.70;99.90
53294;DHT22;39181;53.440;5.644;2022-11-21T06:53:42;0.70;99.90
53294;DHT22;39181;53.440;5.644;2022-11-21T06:56:08;0.70;99.90
53294;DHT22;39181;53.440;5.644;2022-11-21T06:58:34;0.80;99.90
53294;DHT22;39181;53.440;5.644;2022-11-21T07:01:07;0.70;99.90
53294;DHT22;39181;53.440;5.644;2022-11-21T07:03:33;0.70;99.90
53294;DHT22;39181;53.440;5.644;2022-11-21T07:05:59;0.90;99.90
53294;DHT22;39181;53.440;5.644;2022-11-21T07:08:30;0.90;99.90
53294;DHT22;39181;53.440;5.644;2022-11-21T07:11:00;0.80;99.90
53294;DHT22;39181;53.440;5.644;2022-11-21T07:13:27;0.80;99.90
53294;DHT22;39181;53.440;5.644;2022-11-21T07:15:54;0.80;99.90
53294;DHT22;39181;53.440;5.644;2022-11-21T07:18:21;0.80;99.90
53294;DHT22;39181;53.440;5.644;2022-11-21T07:20:47;0.90;99.90
53294;DHT22;39181;53.440;5.644;2022-11-21T07:23:13;0.90;99.90
53294;DHT22;39181;53.440;5.644;2022-11-21T07:25:38;1.00;99.90
53294;DHT22;39181;53.440;5.644;2022-11-21T07:28:05;0.90;99.90
53294;DHT22;39181;53.440;5.644;2022-11-21T07:30:32;0.90;99.90
53294;DHT22;39181;53.440;5.644;2022-11-21T07:33:00;0.90;99.90
53294;DHT22;39181;53.440;5.644;2022-11-21T07:35:26;1.00;99.90
53294;DHT22;39181;53.440;5.644;2022-11-21T07:37:52;0.90;99.90
53294;DHT22;39181;53.440;5.644;2022-11-21T07:40:18;1.00;99.90
53294;DHT22;39181;53.440;5.644;2022-11-21T07:42:44;1.00;99.90
53294;DHT22;39181;53.440;5.644;2022-11-21T07:45:11;1.00;99.90
53294;DHT22;39181;53.440;5.644;2022-11-21T07:47:36;1.10;99.90
53294;DHT22;39181;53.440;5.644;2022-11-21T07:50:03;1.20;99.90
53294;DHT22;39181;53.440;5.644;2022-11-21T07:52:29;1.10;99.90
53294;DHT22;39181;53.440;5.644;2022-11-21T07:54:55;1.40;99.90
53294;DHT22;39181;53.440;5.644;2022-11-21T07:57:22;1.30;99.90
53294;DHT22;39181;53.440;5.644;2022-11-21T07:59:47;1.30;99.90
53294;DHT22;39181;53.440;5.644;2022-11-21T08:02:21;1.30;99.90
53294;DHT22;39181;53.440;5.644;2022-11-21T08:04:47;1.20;99.90
53294;DHT22;39181;53.440;5.644;2022-11-21T08:07:14;1.20;99.90
53294;DHT22;39181;53.440;5.644;2022-11-21T08:09:40;1.30;99.90
53294;DHT22;39181;53.440;5.644;2022-11-21T08:12:06;1.30;99.90
53294;DHT22;39181;53.440;5.644;2022-11-21T08:14:32;1.40;99.90
53294;DHT22;39181;53.440;5.644;2022-11-21T08:16:58;1.30;99.90
53294;DHT22;39181;53.440;5.644;2022-11-21T08:19:24;1.40;99.90
53294;DHT22;39181;53.440;5.644;2022-11-21T08:21:49;1.40;99.90
53294;DHT22;39181;53.440;5.644;2022-11-21T08:24:15;1.50;99.90
53294;DHT22;39181;53.440;5.644;2022-11-21T08:26:42;1.40;99.90
53294;DHT22;39181;53.440;5.644;2022-11-21T08:29:09;1.50;99.90
53294;DHT22;39181;53.440;5.644;2022-11-21T08:31:38;1.50;99.90
53294;DHT22;39181;53.440;5.644;2022-11-21T08:34:04;2.20;99.90
53294;DHT22;39181;53.440;5.644;2022-11-21T08:36:30;1.60;99.90
53294;DHT22;39181;53.440;5.644;2022-11-21T08:38:55;1.60;99.90
53294;DHT22;39181;53.440;5.644;2022-11-21T08:41:21;1.70;99.90
53294;DHT22;39181;53.440;5.644;2022-11-21T08:44:06;1.60;99.90
53294;DHT22;39181;53.440;5.644;2022-11-21T08:46:33;1.60;99.90
53294;DHT22;39181;53.440;5.644;2022-11-21T08:49:05;1.70;99.90
53294;DHT22;39181;53.440;5.644;2022-11-21T08:51:31;1.70;99.90
53294;DHT22;39181;53.440;5.644;2022-11-21T08:53:56;1.60;99.90
53294;DHT22;39181;53.440;5.644;2022-11-21T08:56:22;1.70;99.90
53294;DHT22;39181;53.440;5.644;2022-11-21T08:58:47;1.60;99.90
53294;DHT22;39181;53.440;5.644;2022-11-21T09:01:13;1.70;99.90
53294;DHT22;39181;53.440;5.644;2022-11-21T09:03:39;1.70;99.90
53294;DHT22;39181;53.440;5.644;2022-11-21T09:06:04;1.80;99.90
53294;DHT22;39181;53.440;5.644;2022-11-21T09:08:30;1.80;99.90
53294;DHT22;39181;53.440;5.644;2022-11-21T09:10:56;1.90;99.90
53294;DHT22;39181;53.440;5.644;2022-11-21T09:13:21;1.90;99.90
53294;DHT22;39181;53.440;5.644;2022-11-21T09:15:47;1.90;99.90
53294;DHT22;39181;53.440;5.644;2022-11-21T09:18:31;1.90;99.90
53294;DHT22;39181;53.440;5.644;2022-11-21T09:20:57;1.90;99.90
53294;DHT22;39181;53.440;5.644;2022-11-21T09:23:23;2.10;99.90
53294;DHT22;39181;53.440;5.644;2022-11-21T09:25:48;2.10;99.90
53294;DHT22;39181;53.440;5.644;2022-11-21T09:28:14;2.10;99.90
53294;DHT22;39181;53.440;5.644;2022-11-21T09:30:41;2.20;99.90
53294;DHT22;39181;53.440;5.644;2022-11-21T09:33:09;2.10;99.90
53294;DHT22;39181;53.440;5.644;2022-11-21T09:35:35;2.10;99.90
53294;DHT22;39181;53.440;5.644;2022-11-21T09:38:01;2.10;99.90
53294;DHT22;39181;53.440;5.644;2022-11-21T09:40:31;2.00;99.90
53294;DHT22;39181;53.440;5.644;2022-11-21T09:46:09;2.20;99.90
53294;DHT22;39181;53.440;5.644;2022-11-21T09:48:56;2.10;99.90
53294;DHT22;39181;53.440;5.644;2022-11-21T09:51:23;2.10;99.90
53294;DHT22;39181;53.440;5.644;2022-11-21T09:56:38;2.10;99.90
53294;DHT22;39181;53.440;5.644;2022-11-21T10:01:56;2.20;99.90
53294;DHT22;39181;53.440;5.644;2022-11-21T10:04:22;2.20;99.90
53294;DHT22;39181;53.440;5.644;2022-11-21T10:25:29;2.70;99.90
53294;DHT22;39181;53.440;5.644;2022-11-21T10:28:19;2.70;99.90
53294;DHT22;39181;53.440;5.644;2022-11-21T10:30:47;2.70;99.90
53294;DHT22;39181;53.440;5.644;2022-11-21T10:33:32;2.70;99.90
53294;DHT22;39181;53.440;5.644;2022-11-21T10:36:08;2.70;99.90
53294;DHT22;39181;53.440;5.644;2022-11-21T10:38:39;2.80;99.90
53294;DHT22;39181;53.440;5.644;2022-11-21T10:41:19;2.80;99.90
53294;DHT22;39181;53.440;5.644;2022-11-21T10:43:53;2.70;99.90
53294;DHT22;39181;53.440;5.644;2022-11-21T10:46:39;2.90;99.90
53294;DHT22;39181;53.440;5.644;2022-11-21T10:49:09;2.90;99.90
53294;DHT22;39181;53.440;5.644;2022-11-21T10:51:56;3.00;99.90
53294;DHT22;39181;53.440;5.644;2022-11-21T10:54:24;3.00;99.90
53294;DHT22;39181;53.440;5.644;2022-11-21T10:57:13;3.00;99.90
53294;DHT22;39181;53.440;5.644;2022-11-21T10:59:40;3.10;99.90
53294;DHT22;39181;53.440;5.644;2022-11-21T11:04:38;3.30;99.90
53294;DHT22;39181;53.440;5.644;2022-11-21T11:09:44;3.50;99.90
53294;DHT22;39181;53.440;5.644;2022-11-21T11:12:22;3.50;99.90
53294;DHT22;39181;53.440;5.644;2022-11-21T11:14:51;3.40;99.90
53294;DHT22;39181;53.440;5.644;2022-11-21T11:17:28;3.40;99.90
53294;DHT22;39181;53.440;5.644;2022-11-21T11:20:12;3.40;99.90
53294;DHT22;39181;53.440;5.644;2022-11-21T11:22:50;3.30;99.90
53294;DHT22;39181;53.440;5.644;2022-11-21T11:25:16;3.40;99.90
53294;DHT22;39181;53.440;5.644;2022-11-21T11:27:42;3.40;99.90
53294;DHT22;39181;53.440;5.644;2022-11-21T11:30:13;3.40;99.90
53294;DHT22;39181;53.440;5.644;2022-11-21T11:32:39;3.50;99.90
53294;DHT22;39181;53.440;5.644;2022-11-21T11:37:37;3.70;99.90
53294;DHT22;39181;53.440;5.644;2022-11-21T11:48:43;3.80;99.90
53294;DHT22;39181;53.440;5.644;2022-11-21T11:51:26;3.80;99.90
53294;DHT22;39181;53.440;5.644;2022-11-21T11:54:06;3.90;99.90
53294;DHT22;39181;53.440;5.644;2022-11-21T11:56:35;3.90;99.90
53294;DHT22;39181;53.440;5.644;2022-11-21T11:59:20;3.90;99.90
53294;DHT22;39181;53.440;5.644;2022-11-21T12:04:17;3.90;99.90
53294;DHT22;39181;53.440;5.644;2022-11-21T12:06:59;4.00;99.90
53294;DHT22;39181;53.440;5.644;2022-11-21T12:12:08;4.00;99.90
53294;DHT22;39181;53.440;5.644;2022-11-21T12:17:47;3.90;99.90
53294;DHT22;39181;53.440;5.644;2022-11-21T12:21:13;3.90;99.90
53294;DHT22;39181;53.440;5.644;2022-11-21T12:23:14;4.00;99.90
53294;DHT22;39181;53.440;5.644;2022-11-21T12:26:04;4.00;99.90
53294;DHT22;39181;53.440;5.644;2022-11-21T12:31:26;4.20;99.90
53294;DHT22;39181;53.440;5.644;2022-11-21T12:40:03;4.40;99.90
53294;DHT22;39181;53.440;5.644;2022-11-21T12:42:40;4.40;99.90
53294;DHT22;39181;53.440;5.644;2022-11-21T12:45:33;4.40;99.90
53294;DHT22;39181;53.440;5.644;2022-11-21T12:51:44;4.50;99.90
53294;DHT22;39181;53.440;5.644;2022-11-21T12:59:44;4.50;99.90
53294;DHT22;39181;53.440;5.644;2022-11-21T13:02:25;4.50;99.90
53294;DHT22;39181;53.440;5.644;2022-11-21T13:04:53;4.50;99.90
53294;DHT22;39181;53.440;5.644;2022-11-21T13:07:22;4.50;99.90
53294;DHT22;39181;53.440;5.644;2022-11-21T13:09:51;4.50;99.90
53294;DHT22;39181;53.440;5.644;2022-11-21T13:12:29;4.60;99.90
53294;DHT22;39181;53.440;5.644;2022-11-21T13:15:05;4.70;99.90
53294;DHT22;39181;53.440;5.644;2022-11-21T13:25:09;4.60;99.90
53294;DHT22;39181;53.440;5.644;2022-11-21T13:32:44;4.70;99.90
53294;DHT22;39181;53.440;5.644;2022-11-21T13:38:13;4.70;99.90
53294;DHT22;39181;53.440;5.644;2022-11-21T13:40:39;4.70;99.90
53294;DHT22;39181;53.440;5.644;2022-11-21T13:43:27;4.70;99.90
53294;DHT22;39181;53.440;5.644;2022-11-21T13:45:53;4.70;99.90
53294;DHT22;39181;53.440;5.644;2022-11-21T13:54:32;5.00;99.90
53294;DHT22;39181;53.440;5.644;2022-11-21T14:00:09;5.30;99.90
53294;DHT22;39181;53.440;5.644;2022-11-21T14:02:51;5.40;99.90
53294;DHT22;39181;53.440;5.644;2022-11-21T14:05:37;5.40;99.90
53294;DHT22;39181;53.440;5.644;2022-11-21T14:08:23;5.40;99.90
53294;DHT22;39181;53.440;5.644;2022-11-21T14:10:50;5.30;99.90
53294;DHT22;39181;53.440;5.644;2022-11-21T14:13:32;5.30;99.90
53294;DHT22;39181;53.440;5.644;2022-11-21T14:16:26;5.10;99.90
53294;DHT22;39181;53.440;5.644;2022-11-21T14:18:55;5.10;99.90
53294;DHT22;39181;53.440;5.644;2022-11-21T14:21:25;5.00;99.90
53294;DHT22;39181;53.440;5.644;2022-11-21T14:23:54;4.90;99.90
53294;DHT22;39181;53.440;5.644;2022-11-21T14:26:21;4.70;99.90
53294;DHT22;39181;53.440;5.644;2022-11-21T14:28:50;4.70;99.90
53294;DHT22;39181;53.440;5.644;2022-11-21T14:31:16;4.70;99.90
53294;DHT22;39181;53.440;5.644;2022-11-21T14:33:43;4.50;99.90
53294;DHT22;39181;53.440;5.644;2022-11-21T14:36:23;4.40;99.90
53294;DHT22;39181;53.440;5.644;2022-11-21T14:38:50;4.40;99.90
53294;DHT22;39181;53.440;5.644;2022-11-21T14:46:24;4.20;99.90
53294;DHT22;39181;53.440;5.644;2022-11-21T14:48:50;4.20;99.90
53294;DHT22;39181;53.440;5.644;2022-11-21T14:51:19;4.20;99.90
53294;DHT22;39181;53.440;5.644;2022-11-21T14:53:47;4.10;99.90
53294;DHT22;39181;53.440;5.644;2022-11-21T14:56:25;4.10;99.90
53294;DHT22;39181;53.440;5.644;2022-11-21T14:58:52;4.10;99.90
53294;DHT22;39181;53.440;5.644;2022-11-21T15:01:23;4.10;99.90
53294;DHT22;39181;53.440;5.644;2022-11-21T15:04:07;4.10;99.90
53294;DHT22;39181;53.440;5.644;2022-11-21T15:06:41;3.90;99.90
53294;DHT22;39181;53.440;5.644;2022-11-21T15:09:14;4.10;99.90
53294;DHT22;39181;53.440;5.644;2022-11-21T15:11:53;4.00;99.90
53294;DHT22;39181;53.440;5.644;2022-11-21T15:17:01;4.00;99.90
53294;DHT22;39181;53.440;5.644;2022-11-21T15:19:29;4.00;99.90
53294;DHT22;39181;53.440;5.644;2022-11-21T15:21:58;4.00;99.90
53294;DHT22;39181;53.440;5.644;2022-11-21T15:24:36;3.90;99.90
53294;DHT22;39181;53.440;5.644;2022-11-21T15:27:31;3.90;99.90
53294;DHT22;39181;53.440;5.644;2022-11-21T15:33:00;3.80;99.90
53294;DHT22;39181;53.440;5.644;2022-11-21T15:35:40;3.80;99.90
53294;DHT22;39181;53.440;5.644;2022-11-21T15:48:40;3.60;99.90
53294;DHT22;39181;53.440;5.644;2022-11-21T15:51:08;3.70;99.90
53294;DHT22;39181;53.440;5.644;2022-11-21T15:53:35;3.60;99.90
53294;DHT22;39181;53.440;5.644;2022-11-21T15:56:00;3.60;99.90
53294;DHT22;39181;53.440;5.644;2022-11-21T15:58:26;3.60;99.90
53294;DHT22;39181;53.440;5.644;2022-11-21T16:00:51;3.70;99.90
53294;DHT22;39181;53.440;5.644;2022-11-21T16:03:17;3.60;99.90
53294;DHT22;39181;53.440;5.644;2022-11-21T16:05:42;3.60;99.90
53294;DHT22;39181;53.440;5.644;2022-11-21T16:08:08;3.60;99.90
53294;DHT22;39181;53.440;5.644;2022-11-21T16:10:33;3.50;99.90
53294;DHT22;39181;53.440;5.644;2022-11-21T16:13:00;3.60;99.90
53294;DHT22;39181;53.440;5.644;2022-11-21T16:15:26;3.60;99.90
53294;DHT22;39181;53.440;5.644;2022-11-21T16:17:52;3.50;99.90
53294;DHT22;39181;53.440;5.644;2022-11-21T16:20:17;3.50;99.90
53294;DHT22;39181;53.440;5.644;2022-11-21T16:22:43;3.60;99.90
53294;DHT22;39181;53.440;5.644;2022-11-21T16:25:09;3.40;99.90
53294;DHT22;39181;53.440;5.644;2022-11-21T16:27:35;3.50;99.90
53294;DHT22;39181;53.440;5.644;2022-11-21T16:30:00;3.50;99.90
53294;DHT22;39181;53.440;5.644;2022-11-21T16:32:26;3.50;99.90
53294;DHT22;39181;53.440;5.644;2022-11-21T16:34:52;3.60;99.90
53294;DHT22;39181;53.440;5.644;2022-11-21T16:37:19;3.60;99.90
53294;DHT22;39181;53.440;5.644;2022-11-21T16:39:44;3.50;99.90
53294;DHT22;39181;53.440;5.644;2022-11-21T16:42:17;3.60;99.90
53294;DHT22;39181;53.440;5.644;2022-11-21T16:44:42;3.50;99.90
53294;DHT22;39181;53.440;5.644;2022-11-21T16:47:08;3.60;99.90
53294;DHT22;39181;53.440;5.644;2022-11-21T16:49:34;3.50;99.90
53294;DHT22;39181;53.440;5.644;2022-11-21T16:52:00;3.60;99.90
53294;DHT22;39181;53.440;5.644;2022-11-21T16:54:26;3.50;99.90
53294;DHT22;39181;53.440;5.644;2022-11-21T16:56:51;3.50;99.90
53294;DHT22;39181;53.440;5.644;2022-11-21T16:59:17;3.40;99.90
53294;DHT22;39181;53.440;5.644;2022-11-21T17:01:42;3.50;99.90
53294;DHT22;39181;53.440;5.644;2022-11-21T17:04:08;3.50;99.90
53294;DHT22;39181;53.440;5.644;2022-11-21T17:06:34;3.40;99.90
53294;DHT22;39181;53.440;5.644;2022-11-21T17:09:01;3.40;99.90
53294;DHT22;39181;53.440;5.644;2022-11-21T17:11:28;3.40;99.90
53294;DHT22;39181;53.440;5.644;2022-11-21T17:13:58;3.40;99.90
53294;DHT22;39181;53.440;5.644;2022-11-21T17:16:24;3.50;99.90
53294;DHT22;39181;53.440;5.644;2022-11-21T17:18:54;3.40;99.90
53294;DHT22;39181;53.440;5.644;2022-11-21T17:21:21;3.40;99.90
53294;DHT22;39181;53.440;5.644;2022-11-21T17:23:46;3.50;99.90
53294;DHT22;39181;53.440;5.644;2022-11-21T17:26:15;3.40;99.90
53294;DHT22;39181;53.440;5.644;2022-11-21T17:28:41;3.40;99.90
53294;DHT22;39181;53.440;5.644;2022-11-21T17:31:14;3.40;99.90
53294;DHT22;39181;53.440;5.644;2022-11-21T17:33:41;3.50;99.90
53294;DHT22;39181;53.440;5.644;2022-11-21T17:36:10;3.40;99.90
53294;DHT22;39181;53.440;5.644;2022-11-21T17:38:37;3.40;99.90
53294;DHT22;39181;53.440;5.644;2022-11-21T17:41:06;3.50;99.90
53294;DHT22;39181;53.440;5.644;2022-11-21T17:43:33;3.50;99.90
53294;DHT22;39181;53.440;5.644;2022-11-21T17:46:04;3.50;99.90
53294;DHT22;39181;53.440;5.644;2022-11-21T17:48:32;3.40;99.90
53294;DHT22;39181;53.440;5.644;2022-11-21T17:50:59;3.40;99.90
53294;DHT22;39181;53.440;5.644;2022-11-21T17:53:29;3.50;99.90
53294;DHT22;39181;53.440;5.644;2022-11-21T17:55:59;3.60;99.90
53294;DHT22;39181;53.440;5.644;2022-11-21T17:58:26;3.60;99.90
53294;DHT22;39181;53.440;5.644;2022-11-21T18:01:00;3.60;99.90